createdAt,value
2019-02-25T00:01:36.668Z,33.55
2019-02-25T00:04:06.886Z,33.27
2019-02-25T00:06:36.133Z,33.41
2019-02-25T00:09:08.815Z,33.99
2019-02-25T00:11:38.001Z,33.82
2019-02-25T00:14:07.197Z,33.67
2019-02-25T00:16:36.476Z,33.46
2019-02-25T00:19:05.632Z,33.53
2019-02-25T00:21:34.912Z,33.99
2019-02-25T00:24:04.109Z,34.09
2019-02-25T00:26:33.375Z,33.72
2019-02-25T00:29:02.643Z,33.73
2019-02-25T00:31:31.825Z,33.68
2019-02-25T00:34:03.693Z,33.55
2019-02-25T00:36:32.910Z,33.57
2019-02-25T00:39:02.152Z,33.86
2019-02-25T00:41:31.413Z,33.60
2019-02-25T00:44:00.639Z,33.39
2019-02-25T00:46:30.028Z,33.52
2019-02-25T00:48:59.318Z,33.90
2019-02-25T00:51:28.514Z,33.77
2019-02-25T00:53:57.906Z,34.14
2019-02-25T00:56:27.161Z,33.91
2019-02-25T00:58:56.588Z,33.97
2019-02-25T01:01:29.074Z,34.02
2019-02-25T01:03:58.643Z,33.89
2019-02-25T01:06:28.011Z,33.65
2019-02-25T01:08:57.330Z,32.87
2019-02-25T01:11:26.517Z,32.33
2019-02-25T01:13:55.775Z,32.27
2019-02-25T01:16:25.038Z,32.13
2019-02-25T01:18:54.398Z,32.34
2019-02-25T01:21:23.617Z,32.55
2019-02-25T01:23:52.892Z,32.76
2019-02-25T01:26:22.344Z,32.83
2019-02-25T01:28:51.495Z,32.93
2019-02-25T01:31:20.751Z,33.04
2019-02-25T01:33:50.005Z,33.34
2019-02-25T01:36:19.279Z,33.70
2019-02-25T01:38:48.612Z,34.07
2019-02-25T01:41:17.768Z,34.48
2019-02-25T01:43:46.976Z,34.08
2019-02-25T01:46:16.636Z,34.74
2019-02-25T01:48:46.260Z,34.31
2019-02-25T01:51:15.558Z,34.38
2019-02-25T01:53:45.046Z,34.80
2019-02-25T01:56:14.275Z,34.48
2019-02-25T01:58:43.592Z,34.44
2019-02-25T02:01:12.908Z,35.14
2019-02-25T02:03:42.132Z,34.83
2019-02-25T02:06:11.320Z,34.63
2019-02-25T02:08:40.513Z,34.57
2019-02-25T02:11:09.929Z,34.30
2019-02-25T02:13:39.169Z,34.48
2019-02-25T02:16:08.469Z,34.53
2019-02-25T02:18:37.610Z,34.54
2019-02-25T02:21:06.851Z,34.63
2019-02-25T02:23:36.394Z,34.54
2019-02-25T02:26:05.697Z,34.76
2019-02-25T02:28:34.919Z,34.73
2019-02-25T02:31:04.141Z,34.81
2019-02-25T02:33:33.337Z,35.23
2019-02-25T02:36:02.610Z,34.93
2019-02-25T02:38:31.857Z,34.75
2019-02-25T02:41:01.099Z,34.13
2019-02-25T02:43:30.500Z,34.19
2019-02-25T02:46:08.136Z,34.01
2019-02-25T02:48:41.281Z,33.61
2019-02-25T02:51:10.483Z,33.94
2019-02-25T02:53:39.726Z,34.34
2019-02-25T02:56:09.475Z,34.84
2019-02-25T02:58:38.960Z,34.16
2019-02-25T03:01:08.122Z,34.38
2019-02-25T03:03:37.570Z,34.52
2019-02-25T03:06:06.843Z,34.54
2019-02-25T03:08:36.044Z,34.55
2019-02-25T03:11:05.544Z,33.51
2019-02-25T03:13:34.722Z,33.43
2019-02-25T03:16:03.887Z,33.87
2019-02-25T03:18:33.067Z,33.86
2019-02-25T03:21:02.314Z,33.94
2019-02-25T03:23:31.573Z,34.21
2019-02-25T03:26:00.839Z,34.20
2019-02-25T03:28:30.331Z,34.21
2019-02-25T03:30:59.695Z,34.06
2019-02-25T03:33:29.078Z,34.10
2019-02-25T03:35:58.246Z,33.72
2019-02-25T03:38:28.604Z,33.67
2019-02-25T03:40:57.785Z,33.46
2019-02-25T03:43:26.987Z,33.74
2019-02-25T03:45:58.599Z,33.77
2019-02-25T03:48:27.774Z,33.65
2019-02-25T03:50:59.453Z,33.77
2019-02-25T03:53:28.715Z,33.68
2019-02-25T03:55:57.940Z,33.85
2019-02-25T03:58:27.328Z,34.01
2019-02-25T04:00:58.842Z,34.17
2019-02-25T04:03:28.142Z,34.37
2019-02-25T04:05:57.741Z,34.60
2019-02-25T04:08:26.973Z,34.90
2019-02-25T04:10:56.376Z,35.01
2019-02-25T04:13:33.767Z,34.61
2019-02-25T04:16:23.276Z,34.42
2019-02-25T04:19:00.431Z,34.38
2019-02-25T04:21:29.626Z,34.22
2019-02-25T04:23:58.868Z,34.28
2019-02-25T04:26:28.151Z,34.26
2019-02-25T04:28:57.349Z,34.29
2019-02-25T04:31:26.580Z,34.32
2019-02-25T04:33:55.805Z,34.35
2019-02-25T04:36:24.979Z,34.37
2019-02-25T04:38:54.201Z,34.44
2019-02-25T04:41:23.813Z,34.74
2019-02-25T04:43:53.027Z,34.78
2019-02-25T04:46:22.222Z,34.84
2019-02-25T04:48:51.377Z,34.91
2019-02-25T04:51:20.609Z,34.81
2019-02-25T04:53:49.773Z,34.96
2019-02-25T04:56:18.940Z,34.99
2019-02-25T04:58:48.606Z,35.05
2019-02-25T05:01:17.994Z,35.15
2019-02-25T05:03:47.185Z,35.08
2019-02-25T05:06:16.439Z,35.24
2019-02-25T05:08:45.609Z,35.28
2019-02-25T05:11:14.785Z,35.47
2019-02-25T05:13:43.981Z,35.49
2019-02-25T05:16:13.267Z,35.79
2019-02-25T05:18:42.469Z,35.93
2019-02-25T05:21:11.765Z,36.02
2019-02-25T05:23:40.969Z,36.23
2019-02-25T05:26:10.240Z,36.33
2019-02-25T05:28:39.388Z,36.35
2019-02-25T05:31:14.562Z,36.40
2019-02-25T05:33:43.763Z,36.49
2019-02-25T05:36:12.915Z,36.49
2019-02-25T05:38:42.872Z,36.55
2019-02-25T05:41:12.338Z,36.65
2019-02-25T05:43:41.558Z,36.76
2019-02-25T05:46:10.845Z,36.77
2019-02-25T05:48:40.206Z,36.91
2019-02-25T05:51:09.409Z,37.02
2019-02-25T05:53:38.650Z,37.14
2019-02-25T05:56:07.848Z,37.30
2019-02-25T05:58:37.208Z,37.46
2019-02-25T06:01:06.467Z,37.65
2019-02-25T06:03:35.601Z,37.75
2019-02-25T06:06:04.784Z,37.42
2019-02-25T06:08:34.065Z,37.37
2019-02-25T06:11:03.314Z,37.51
2019-02-25T06:13:34.535Z,37.42
2019-02-25T06:16:03.845Z,37.48
2019-02-25T06:18:33.077Z,37.42
2019-02-25T06:21:03.393Z,37.87
2019-02-25T06:23:31.957Z,37.64
2019-02-25T06:26:01.177Z,37.48
2019-02-25T06:28:30.451Z,37.54
2019-02-25T06:30:59.719Z,37.53
2019-02-25T06:33:29.082Z,37.50
2019-02-25T06:35:58.443Z,37.63
2019-02-25T06:38:27.782Z,37.44
2019-02-25T06:40:57.108Z,37.69
2019-02-25T06:43:26.386Z,37.69
2019-02-25T06:45:55.659Z,37.95
2019-02-25T06:48:24.858Z,38.19
2019-02-25T06:50:55.166Z,38.19
2019-02-25T06:53:24.340Z,38.10
2019-02-25T06:55:53.719Z,38.26
2019-02-25T06:58:23.303Z,38.32
2019-02-25T07:00:52.514Z,38.50
2019-02-25T07:03:21.768Z,38.46
2019-02-25T07:06:18.816Z,38.43
2019-02-25T07:09:07.042Z,38.28
2019-02-25T07:11:53.906Z,38.28
2019-02-25T07:14:53.306Z,38.29
2019-02-25T07:17:43.317Z,38.29
2019-02-25T07:20:28.827Z,38.17
2019-02-25T07:23:20.221Z,37.99
2019-02-25T07:26:14.423Z,38.09
2019-02-25T07:29:03.507Z,38.05
2019-02-25T07:31:38.160Z,37.93
2019-02-25T07:34:22.527Z,37.69
2019-02-25T07:37:19.545Z,37.54
2019-02-25T07:39:58.321Z,37.29
2019-02-25T07:42:46.529Z,37.27
2019-02-25T07:45:33.392Z,37.08
2019-02-25T07:48:11.079Z,37.23
2019-02-25T07:50:48.229Z,37.32
2019-02-25T07:53:46.357Z,37.08
2019-02-25T07:56:23.691Z,37.22
2019-02-25T07:59:14.873Z,37.61
2019-02-25T08:01:50.834Z,37.41
2019-02-25T08:04:37.015Z,36.71
2019-02-25T08:07:25.897Z,36.79
2019-02-25T08:10:14.082Z,37.23
2019-02-25T08:13:04.965Z,37.07
2019-02-25T08:15:46.375Z,37.01
2019-02-25T08:18:23.697Z,37.11
2019-02-25T08:21:14.546Z,37.21
2019-02-25T08:23:54.912Z,36.83
2019-02-25T08:26:38.746Z,36.56
2019-02-25T08:29:18.407Z,36.18
2019-02-25T08:32:15.402Z,35.99
2019-02-25T08:35:09.470Z,35.94
2019-02-25T08:38:15.873Z,36.19
2019-02-25T08:41:34.400Z,35.73
2019-02-25T08:44:29.884Z,35.85
2019-02-25T08:47:18.122Z,35.55
2019-02-25T08:49:52.728Z,35.43
2019-02-25T08:52:22.382Z,35.54
2019-02-25T08:54:53.103Z,34.88
2019-02-25T08:57:22.413Z,34.81
2019-02-25T08:59:51.750Z,34.57
2019-02-25T09:02:20.965Z,34.25
2019-02-25T09:04:50.182Z,34.34
2019-02-25T09:07:19.497Z,33.86
2019-02-25T09:09:48.673Z,33.85
2019-02-25T09:12:18.280Z,33.51
2019-02-25T09:14:47.471Z,33.55
2019-02-25T09:17:17.803Z,33.32
2019-02-25T09:19:46.998Z,32.72
2019-02-25T09:22:16.187Z,32.21
2019-02-25T09:24:45.388Z,31.59
2019-02-25T09:27:14.591Z,30.71
2019-02-25T09:29:44.944Z,30.50
2019-02-25T09:32:14.652Z,30.27
2019-02-25T09:34:43.823Z,30.18
2019-02-25T09:37:13.064Z,30.16
2019-02-25T09:39:42.237Z,30.16
2019-02-25T09:42:11.430Z,29.85
2019-02-25T09:44:40.743Z,30.09
2019-02-25T09:47:13.119Z,28.86
2019-02-25T09:49:43.734Z,28.98
2019-02-25T09:52:13.719Z,28.63
2019-02-25T09:54:43.061Z,28.53
2019-02-25T09:57:12.253Z,28.20
2019-02-25T09:59:44.668Z,28.02
2019-02-25T10:02:13.845Z,27.21
2019-02-25T10:04:43.115Z,26.75
2019-02-25T10:07:12.380Z,26.93
2019-02-25T10:09:41.728Z,26.82
2019-02-25T10:12:13.746Z,26.71
2019-02-25T10:14:42.941Z,27.02
2019-02-25T10:17:12.519Z,27.10
2019-02-25T10:19:41.819Z,27.16
2019-02-25T10:22:11.081Z,27.09
2019-02-25T10:24:40.266Z,27.35
2019-02-25T10:27:09.529Z,27.45
2019-02-25T10:29:38.839Z,27.59
2019-02-25T10:32:11.163Z,27.71
2019-02-25T10:34:40.426Z,27.93
2019-02-25T10:37:11.066Z,27.62
2019-02-25T10:39:43.201Z,27.86
2019-02-25T10:42:12.360Z,28.01
2019-02-25T10:44:41.698Z,28.05
2019-02-25T10:47:13.124Z,29.08
2019-02-25T10:49:41.927Z,28.30
2019-02-25T10:52:12.789Z,28.60
2019-02-25T10:54:42.275Z,28.65
2019-02-25T10:57:15.485Z,29.17
2019-02-25T10:59:45.525Z,28.86
2019-02-25T11:02:15.322Z,29.21
2019-02-25T11:04:47.361Z,28.84
2019-02-25T11:07:20.739Z,29.03
2019-02-25T11:10:03.795Z,28.93
2019-02-25T11:12:33.618Z,28.92
2019-02-25T11:15:02.868Z,28.99
2019-02-25T11:17:32.170Z,29.21
2019-02-25T11:20:03.735Z,29.09
2019-02-25T11:22:32.644Z,28.98
2019-02-25T11:25:02.191Z,29.22
2019-02-25T11:27:35.850Z,29.11
2019-02-25T11:30:06.008Z,29.05
2019-02-25T11:32:35.203Z,29.20
2019-02-25T11:35:06.382Z,28.85
2019-02-25T11:37:36.550Z,28.87
2019-02-25T11:40:06.392Z,29.32
2019-02-25T11:42:35.638Z,28.96
2019-02-25T11:45:05.792Z,28.72
2019-02-25T11:47:35.069Z,28.99
2019-02-25T11:50:05.022Z,28.69
2019-02-25T11:52:34.258Z,29.45
2019-02-25T11:55:03.511Z,28.77
2019-02-25T11:57:32.760Z,28.57
2019-02-25T12:00:02.517Z,28.87
2019-02-25T12:02:31.685Z,28.66
2019-02-25T12:05:01.196Z,28.37
2019-02-25T12:07:30.471Z,28.39
2019-02-25T12:09:59.845Z,28.14
2019-02-25T12:12:29.244Z,28.39
2019-02-25T12:15:02.053Z,28.74
2019-02-25T12:17:31.372Z,28.33
2019-02-25T12:20:01.066Z,28.17
2019-02-25T12:22:30.672Z,27.71
2019-02-25T12:24:59.969Z,27.51
2019-02-25T12:27:29.203Z,25.78
2019-02-25T12:30:00.800Z,25.09
2019-02-25T12:32:32.838Z,24.00
2019-02-25T12:35:02.169Z,23.59
2019-02-25T12:37:31.946Z,23.51
2019-02-25T12:40:01.341Z,23.51
2019-02-25T12:42:30.556Z,23.27
2019-02-25T12:45:00.110Z,23.24
2019-02-25T12:47:29.453Z,22.96
2019-02-25T12:49:58.762Z,21.89
2019-02-25T12:52:28.296Z,21.94
2019-02-25T12:54:57.540Z,21.96
2019-02-25T12:57:26.715Z,22.06
2019-02-25T12:59:55.886Z,21.31
2019-02-25T13:02:25.182Z,21.82
2019-02-25T13:04:54.416Z,20.89
2019-02-25T13:07:23.742Z,21.01
2019-02-25T13:09:53.083Z,20.68
2019-02-25T13:12:22.331Z,20.65
2019-02-25T13:14:51.538Z,20.47
2019-02-25T13:17:21.013Z,20.60
2019-02-25T13:19:52.362Z,20.84
2019-02-25T13:22:21.776Z,20.82
2019-02-25T13:24:51.098Z,20.87
2019-02-25T13:27:20.496Z,21.07
2019-02-25T13:29:49.913Z,21.29
2019-02-25T13:32:19.176Z,21.50
2019-02-25T13:34:48.741Z,21.20
2019-02-25T13:37:18.197Z,21.63
2019-02-25T13:39:47.547Z,21.04
2019-02-25T13:42:16.884Z,20.95
2019-02-25T13:44:46.249Z,21.04
2019-02-25T13:47:15.528Z,20.86
2019-02-25T13:49:44.888Z,20.82
2019-02-25T13:52:14.520Z,20.92
2019-02-25T13:54:43.921Z,20.81
2019-02-25T13:57:13.260Z,21.04
2019-02-25T13:59:42.475Z,20.75
2019-02-25T14:02:12.027Z,20.87
2019-02-25T14:04:41.301Z,21.20
2019-02-25T14:07:11.185Z,20.99
2019-02-25T14:09:40.644Z,20.79
2019-02-25T14:12:09.985Z,20.51
2019-02-25T14:14:39.362Z,20.29
2019-02-25T14:17:08.625Z,20.18
2019-02-25T14:19:37.822Z,20.89
2019-02-25T14:22:07.161Z,20.51
2019-02-25T14:24:38.539Z,20.87
2019-02-25T14:27:08.563Z,21.44
2019-02-25T14:29:37.803Z,21.45
2019-02-25T14:32:07.158Z,21.99
2019-02-25T14:34:36.710Z,22.70
2019-02-25T14:37:06.434Z,22.96
2019-02-25T14:39:37.831Z,23.17
2019-02-25T14:42:08.935Z,23.17
2019-02-25T14:44:40.586Z,23.42
2019-02-25T14:47:19.593Z,23.32
2019-02-25T14:49:42.772Z,23.68
2019-02-25T14:52:13.364Z,24.31
2019-02-25T14:54:42.595Z,24.31
2019-02-25T14:57:11.761Z,24.11
2019-02-25T14:59:41.240Z,24.06
2019-02-25T15:02:11.237Z,24.15
2019-02-25T15:04:41.794Z,24.42
2019-02-25T15:07:13.476Z,25.16
2019-02-25T15:09:43.587Z,24.92
2019-02-25T15:12:14.097Z,25.55
2019-02-25T15:14:43.418Z,25.51
2019-02-25T15:17:14.705Z,26.08
2019-02-25T15:19:43.737Z,25.04
2019-02-25T15:22:13.524Z,25.39
2019-02-25T15:24:44.405Z,26.13
2019-02-25T15:27:14.264Z,26.47
2019-02-25T15:29:44.650Z,25.66
2019-02-25T15:32:17.806Z,25.68
2019-02-25T15:34:48.661Z,25.96
2019-02-25T15:37:18.181Z,25.89
2019-02-25T15:39:47.456Z,26.23
2019-02-25T15:42:17.077Z,25.84
2019-02-25T15:44:49.131Z,25.66
2019-02-25T15:47:18.155Z,26.06
2019-02-25T15:49:48.377Z,25.81
2019-02-25T15:52:18.804Z,25.61
2019-02-25T15:54:49.420Z,26.10
2019-02-25T15:57:20.597Z,25.90
2019-02-25T15:59:49.637Z,25.87
2019-02-25T16:02:18.922Z,25.58
2019-02-25T16:04:48.272Z,25.91
2019-02-25T16:07:17.580Z,25.81
2019-02-25T16:09:47.096Z,25.91
2019-02-25T16:12:16.390Z,26.14
2019-02-25T16:14:47.038Z,26.25
2019-02-25T16:17:16.622Z,26.42
2019-02-25T16:19:47.981Z,26.37
2019-02-25T16:22:16.961Z,26.62
2019-02-25T16:24:46.259Z,26.77
2019-02-25T16:27:16.788Z,26.76
2019-02-25T16:29:46.648Z,26.92
2019-02-25T16:32:17.066Z,26.91
2019-02-25T16:34:47.437Z,27.02
2019-02-25T16:37:17.705Z,27.04
2019-02-25T16:39:48.180Z,27.07
2019-02-25T16:42:19.430Z,27.05
2019-02-25T16:44:48.678Z,27.36
2019-02-25T16:47:31.897Z,27.30
2019-02-25T16:49:50.415Z,27.54
2019-02-25T16:52:22.748Z,27.84
2019-02-25T16:54:51.655Z,27.96
2019-02-25T16:57:22.818Z,28.16
2019-02-25T16:59:53.783Z,28.15
2019-02-25T17:02:23.167Z,28.18
2019-02-25T17:04:54.686Z,28.07
2019-02-25T17:07:24.109Z,28.04
2019-02-25T17:09:54.890Z,28.02
2019-02-25T17:12:25.769Z,28.28
2019-02-25T17:14:58.470Z,29.10
2019-02-25T17:17:28.080Z,29.04
2019-02-25T17:19:57.272Z,29.75
2019-02-25T17:22:26.498Z,29.88
2019-02-25T17:24:58.069Z,30.28
2019-02-25T17:27:28.665Z,30.28
2019-02-25T17:29:59.724Z,30.56
2019-02-25T17:32:29.079Z,30.73
2019-02-25T17:35:00.178Z,31.00
2019-02-25T17:37:31.483Z,31.19
2019-02-25T17:40:05.696Z,31.08
2019-02-25T17:42:33.979Z,31.29
2019-02-25T17:45:05.131Z,31.51
2019-02-25T17:47:35.171Z,31.26
2019-02-25T17:50:06.431Z,31.29
2019-02-25T17:52:38.309Z,31.37
2019-02-25T17:55:11.057Z,31.47
2019-02-25T17:57:41.251Z,31.57
2019-02-25T18:00:17.771Z,31.51
2019-02-25T18:02:47.476Z,31.66
2019-02-25T18:05:19.099Z,31.58
2019-02-25T18:07:48.940Z,31.75
2019-02-25T18:10:18.329Z,32.03
2019-02-25T18:12:50.519Z,31.86
2019-02-25T18:15:21.986Z,32.26
2019-02-25T18:17:53.537Z,32.10
2019-02-25T18:20:23.707Z,32.89
2019-02-25T18:22:52.928Z,32.67
2019-02-25T18:25:22.239Z,32.75
2019-02-25T18:27:51.947Z,32.79
2019-02-25T18:30:23.099Z,33.00
2019-02-25T18:32:53.533Z,33.18
2019-02-25T18:35:24.468Z,33.36
2019-02-25T18:37:55.432Z,33.82
2019-02-25T18:40:28.018Z,34.45
2019-02-25T18:42:58.558Z,34.50
2019-02-25T18:45:29.078Z,34.54
2019-02-25T18:47:58.857Z,34.93
2019-02-25T18:50:29.012Z,34.71
2019-02-25T18:53:01.578Z,34.65
2019-02-25T18:55:33.525Z,35.05
2019-02-25T18:58:02.383Z,34.77
2019-02-25T19:00:37.140Z,34.86
2019-02-25T19:03:06.869Z,34.73
2019-02-25T19:05:37.232Z,34.82
2019-02-25T19:08:14.505Z,35.65
2019-02-25T19:10:46.119Z,35.61
2019-02-25T19:13:15.966Z,35.99
2019-02-25T19:15:50.105Z,36.34
2019-02-25T19:18:18.451Z,36.16
2019-02-25T19:20:48.233Z,35.82
2019-02-25T19:23:17.934Z,36.67
2019-02-25T19:25:47.389Z,36.15
2019-02-25T19:28:19.073Z,36.27
2019-02-25T19:30:50.565Z,36.67
2019-02-25T19:33:20.651Z,36.71
2019-02-25T19:35:50.216Z,37.55
2019-02-25T19:38:20.913Z,36.88
2019-02-25T19:40:52.982Z,37.39
2019-02-25T19:43:21.558Z,36.79
2019-02-25T19:45:51.179Z,36.71
2019-02-25T19:48:28.266Z,36.88
2019-02-25T19:50:54.598Z,37.12
2019-02-25T19:53:25.616Z,37.26
2019-02-25T19:55:55.740Z,37.55
2019-02-25T19:58:27.202Z,37.23
2019-02-25T20:01:00.864Z,36.96
2019-02-25T20:03:29.028Z,36.96
2019-02-25T20:05:58.634Z,37.10
2019-02-25T20:08:27.949Z,37.05
2019-02-25T20:10:57.772Z,36.89
2019-02-25T20:13:36.316Z,37.21
2019-02-25T20:16:08.183Z,37.15
2019-02-25T20:18:40.276Z,37.48
2019-02-25T20:21:11.494Z,37.56
2019-02-25T20:23:41.517Z,37.47
2019-02-25T20:26:13.505Z,37.57
2019-02-25T20:28:45.660Z,38.85
2019-02-25T20:31:18.138Z,38.14
2019-02-25T20:33:52.911Z,38.10
2019-02-25T20:36:24.105Z,38.29
2019-02-25T20:38:54.027Z,38.92
2019-02-25T20:41:26.633Z,38.90
2019-02-25T20:43:58.863Z,38.49
2019-02-25T20:46:29.199Z,39.79
2019-02-25T20:49:01.737Z,39.58
2019-02-25T20:51:33.625Z,39.29
2019-02-25T20:54:03.153Z,39.15
2019-02-25T20:56:34.433Z,39.28
2019-02-25T20:59:06.191Z,39.92
2019-02-25T21:01:39.564Z,39.54
2019-02-25T21:04:08.797Z,39.40
2019-02-25T21:06:39.579Z,39.51
2019-02-25T21:09:09.288Z,39.63
2019-02-25T21:11:39.579Z,40.08
2019-02-25T21:14:08.834Z,39.85
2019-02-25T21:16:38.110Z,39.82
2019-02-25T21:19:08.130Z,39.92
2019-02-25T21:21:38.990Z,40.76
2019-02-25T21:24:09.654Z,40.34
2019-02-25T21:26:41.662Z,40.38
2019-02-25T21:29:10.908Z,40.35
2019-02-25T21:31:42.790Z,40.66
2019-02-25T21:34:15.267Z,40.77
2019-02-25T21:36:42.144Z,40.99
2019-02-25T21:39:15.208Z,41.21
2019-02-25T21:41:45.909Z,41.28
2019-02-25T21:44:18.907Z,42.20
2019-02-25T21:46:49.564Z,43.23
2019-02-25T21:49:17.091Z,43.06
2019-02-25T21:51:48.009Z,42.95
2019-02-25T21:54:17.892Z,42.24
2019-02-25T21:56:47.136Z,42.08
2019-02-25T21:59:17.593Z,42.17
2019-02-25T22:01:46.869Z,42.14
2019-02-25T22:04:17.969Z,42.40
2019-02-25T22:06:49.373Z,42.59
2019-02-25T22:09:22.659Z,42.45
2019-02-25T22:11:49.205Z,42.44
2019-02-25T22:14:20.517Z,42.36
2019-02-25T22:16:51.684Z,42.57
2019-02-25T22:19:21.018Z,42.77
2019-02-25T22:21:53.595Z,42.82
2019-02-25T22:24:24.809Z,42.90
2019-02-25T22:26:53.651Z,43.06
2019-02-25T22:29:23.247Z,43.05
2019-02-25T22:31:52.468Z,43.78
2019-02-25T22:34:22.981Z,43.18
2019-02-25T22:36:53.385Z,43.31
2019-02-25T22:39:25.128Z,43.59
2019-02-25T22:41:54.971Z,43.56
2019-02-25T22:44:24.811Z,43.52
2019-02-25T22:46:55.226Z,44.03
2019-02-25T22:49:26.178Z,43.98
2019-02-25T22:51:55.987Z,43.76
2019-02-25T22:54:26.411Z,44.16
2019-02-25T22:56:56.021Z,43.93
2019-02-25T22:59:25.239Z,44.05
2019-02-25T23:01:54.516Z,44.32
2019-02-25T23:04:24.296Z,44.41
2019-02-25T23:06:57.293Z,44.54
2019-02-25T23:09:26.588Z,44.44
2019-02-25T23:11:56.098Z,44.30
2019-02-25T23:14:25.627Z,44.37
2019-02-25T23:16:54.792Z,44.61
2019-02-25T23:19:24.032Z,44.54
2019-02-25T23:21:53.290Z,44.59
2019-02-25T23:24:26.033Z,44.85
2019-02-25T23:26:55.185Z,44.80
2019-02-25T23:29:28.272Z,44.81
2019-02-25T23:31:55.486Z,44.94
2019-02-25T23:34:24.799Z,45.10
2019-02-25T23:36:56.117Z,45.39
2019-02-25T23:39:25.282Z,45.53
2019-02-25T23:41:54.679Z,45.66
2019-02-25T23:44:30.981Z,45.78
2019-02-25T23:47:04.434Z,45.88
2019-02-25T23:49:34.274Z,45.87
2019-02-25T23:52:05.333Z,46.05
2019-02-25T23:54:34.524Z,46.10
